sensor_id;sensor_type;location;lat;lon;timestamp;P1;durP1;ratioP1;P2;durP2;ratioP2
69894;SDS011;57172;52.034;5.090;2022-08-21T00:02:02;6.82;;;3.25;;
69894;SDS011;57172;52.034;5.090;2022-08-21T00:04:29;7.07;;;3.20;;
69894;SDS011;57172;52.034;5.090;2022-08-21T00:06:57;8.60;;;3.55;;
69894;SDS011;57172;52.034;5.090;2022-08-21T00:09:25;6.75;;;3.40;;
69894;SDS011;57172;52.034;5.090;2022-08-21T00:11:52;6.93;;;3.10;;
69894;SDS011;57172;52.034;5.090;2022-08-21T00:14:19;7.32;;;3.13;;
69894;SDS011;57172;52.034;5.090;2022-08-21T00:16:46;10.70;;;3.47;;
69894;SDS011;57172;52.034;5.090;2022-08-21T00:19:13;6.10;;;3.03;;
69894;SDS011;57172;52.034;5.090;2022-08-21T00:21:40;7.93;;;2.95;;
69894;SDS011;57172;52.034;5.090;2022-08-21T00:24:10;7.60;;;3.27;;
69894;SDS011;57172;52.034;5.090;2022-08-21T00:26:38;8.35;;;3.20;;
69894;SDS011;57172;52.034;5.090;2022-08-21T00:29:05;8.93;;;2.85;;
69894;SDS011;57172;52.034;5.090;2022-08-21T00:31:32;10.35;;;3.33;;
69894;SDS011;57172;52.034;5.090;2022-08-21T00:33:59;7.63;;;3.10;;
69894;SDS011;57172;52.034;5.090;2022-08-21T00:36:26;6.57;;;3.07;;
69894;SDS011;57172;52.034;5.090;2022-08-21T00:38:54;6.60;;;3.00;;
69894;SDS011;57172;52.034;5.090;2022-08-21T00:41:21;7.70;;;3.08;;
69894;SDS011;57172;52.034;5.090;2022-08-21T00:44:05;6.30;;;3.10;;
69894;SDS011;57172;52.034;5.090;2022-08-21T00:46:33;8.38;;;3.10;;
69894;SDS011;57172;52.034;5.090;2022-08-21T00:49:00;5.73;;;3.10;;
69894;SDS011;57172;52.034;5.090;2022-08-21T00:51:47;7.28;;;3.28;;
69894;SDS011;57172;52.034;5.090;2022-08-21T00:54:22;7.57;;;3.40;;
69894;SDS011;57172;52.034;5.090;2022-08-21T00:56:54;7.20;;;3.25;;
69894;SDS011;57172;52.034;5.090;2022-08-21T00:59:26;7.30;;;3.20;;
69894;SDS011;57172;52.034;5.090;2022-08-21T01:01:56;7.20;;;3.17;;
69894;SDS011;57172;52.034;5.090;2022-08-21T01:04:23;8.43;;;3.33;;
69894;SDS011;57172;52.034;5.090;2022-08-21T01:06:49;9.38;;;3.40;;
69894;SDS011;57172;52.034;5.090;2022-08-21T01:09:17;7.32;;;3.70;;
69894;SDS011;57172;52.034;5.090;2022-08-21T01:11:45;10.48;;;3.30;;
69894;SDS011;57172;52.034;5.090;2022-08-21T01:14:12;8.93;;;3.43;;
69894;SDS011;57172;52.034;5.090;2022-08-21T01:16:41;7.07;;;3.22;;
69894;SDS011;57172;52.034;5.090;2022-08-21T01:19:12;8.15;;;3.60;;
69894;SDS011;57172;52.034;5.090;2022-08-21T01:21:40;9.35;;;3.50;;
69894;SDS011;57172;52.034;5.090;2022-08-21T01:24:09;9.00;;;3.30;;
69894;SDS011;57172;52.034;5.090;2022-08-21T01:26:36;9.43;;;3.73;;
69894;SDS011;57172;52.034;5.090;2022-08-21T01:31:58;9.27;;;3.83;;
69894;SDS011;57172;52.034;5.090;2022-08-21T01:34:29;9.90;;;3.65;;
69894;SDS011;57172;52.034;5.090;2022-08-21T01:36:56;9.70;;;4.00;;
69894;SDS011;57172;52.034;5.090;2022-08-21T01:39:23;7.43;;;3.50;;
69894;SDS011;57172;52.034;5.090;2022-08-21T01:41:50;7.43;;;3.60;;
69894;SDS011;57172;52.034;5.090;2022-08-21T01:44:19;8.05;;;4.10;;
69894;SDS011;57172;52.034;5.090;2022-08-21T01:46:50;9.45;;;3.75;;
69894;SDS011;57172;52.034;5.090;2022-08-21T01:49:17;9.70;;;3.83;;
69894;SDS011;57172;52.034;5.090;2022-08-21T01:51:44;11.73;;;4.33;;
69894;SDS011;57172;52.034;5.090;2022-08-21T01:54:11;10.77;;;4.30;;
69894;SDS011;57172;52.034;5.090;2022-08-21T01:56:42;10.65;;;4.15;;
69894;SDS011;57172;52.034;5.090;2022-08-21T01:59:11;12.00;;;4.22;;
69894;SDS011;57172;52.034;5.090;2022-08-21T02:01:39;10.15;;;4.15;;
69894;SDS011;57172;52.034;5.090;2022-08-21T02:04:07;10.73;;;4.50;;
69894;SDS011;57172;52.034;5.090;2022-08-21T02:06:35;9.02;;;3.88;;
69894;SDS011;57172;52.034;5.090;2022-08-21T02:09:03;10.93;;;4.60;;
69894;SDS011;57172;52.034;5.090;2022-08-21T02:11:32;10.00;;;4.40;;
69894;SDS011;57172;52.034;5.090;2022-08-21T02:13:59;11.77;;;4.32;;
69894;SDS011;57172;52.034;5.090;2022-08-21T02:16:26;9.63;;;4.37;;
69894;SDS011;57172;52.034;5.090;2022-08-21T02:18:58;10.07;;;4.20;;
69894;SDS011;57172;52.034;5.090;2022-08-21T02:21:25;7.95;;;4.18;;
69894;SDS011;57172;52.034;5.090;2022-08-21T02:23:52;11.40;;;4.53;;
69894;SDS011;57172;52.034;5.090;2022-08-21T02:26:19;7.88;;;4.40;;
69894;SDS011;57172;52.034;5.090;2022-08-21T02:28:46;9.77;;;4.37;;
69894;SDS011;57172;52.034;5.090;2022-08-21T02:31:13;10.82;;;4.38;;
69894;SDS011;57172;52.034;5.090;2022-08-21T02:33:40;14.30;;;4.43;;
69894;SDS011;57172;52.034;5.090;2022-08-21T02:36:07;12.52;;;4.47;;
69894;SDS011;57172;52.034;5.090;2022-08-21T02:38:37;13.23;;;4.70;;
69894;SDS011;57172;52.034;5.090;2022-08-21T02:41:06;11.37;;;4.47;;
69894;SDS011;57172;52.034;5.090;2022-08-21T02:43:35;12.48;;;4.53;;
69894;SDS011;57172;52.034;5.090;2022-08-21T02:46:03;11.35;;;5.03;;
69894;SDS011;57172;52.034;5.090;2022-08-21T02:48:31;9.07;;;4.40;;
69894;SDS011;57172;52.034;5.090;2022-08-21T02:51:01;12.10;;;4.63;;
69894;SDS011;57172;52.034;5.090;2022-08-21T02:53:34;13.47;;;4.83;;
69894;SDS011;57172;52.034;5.090;2022-08-21T02:56:03;11.27;;;5.18;;
69894;SDS011;57172;52.034;5.090;2022-08-21T02:58:37;13.95;;;5.10;;
69894;SDS011;57172;52.034;5.090;2022-08-21T03:01:07;8.60;;;4.65;;
69894;SDS011;57172;52.034;5.090;2022-08-21T03:03:38;11.20;;;4.75;;
69894;SDS011;57172;52.034;5.090;2022-08-21T03:06:09;8.93;;;4.67;;
69894;SDS011;57172;52.034;5.090;2022-08-21T03:08:37;9.52;;;5.10;;
69894;SDS011;57172;52.034;5.090;2022-08-21T03:11:05;9.18;;;4.32;;
69894;SDS011;57172;52.034;5.090;2022-08-21T03:13:35;12.60;;;4.82;;
69894;SDS011;57172;52.034;5.090;2022-08-21T03:16:02;12.75;;;4.97;;
69894;SDS011;57172;52.034;5.090;2022-08-21T03:18:35;10.30;;;5.23;;
69894;SDS011;57172;52.034;5.090;2022-08-21T03:21:03;15.13;;;5.25;;
69894;SDS011;57172;52.034;5.090;2022-08-21T03:23:30;12.80;;;5.10;;
69894;SDS011;57172;52.034;5.090;2022-08-21T03:25:59;13.68;;;5.18;;
69894;SDS011;57172;52.034;5.090;2022-08-21T03:28:26;14.55;;;5.55;;
69894;SDS011;57172;52.034;5.090;2022-08-21T03:30:53;12.37;;;5.50;;
69894;SDS011;57172;52.034;5.090;2022-08-21T03:33:20;10.88;;;5.63;;
69894;SDS011;57172;52.034;5.090;2022-08-21T03:35:52;14.43;;;5.78;;
69894;SDS011;57172;52.034;5.090;2022-08-21T03:38:24;12.27;;;5.53;;
69894;SDS011;57172;52.034;5.090;2022-08-21T03:40:52;11.30;;;5.50;;
69894;SDS011;57172;52.034;5.090;2022-08-21T03:43:19;15.53;;;5.77;;
69894;SDS011;57172;52.034;5.090;2022-08-21T03:45:46;11.52;;;5.60;;
69894;SDS011;57172;52.034;5.090;2022-08-21T03:48:13;11.13;;;5.40;;
69894;SDS011;57172;52.034;5.090;2022-08-21T03:50:41;12.13;;;5.55;;
69894;SDS011;57172;52.034;5.090;2022-08-21T03:53:09;16.77;;;6.20;;
69894;SDS011;57172;52.034;5.090;2022-08-21T03:55:46;15.07;;;6.27;;
69894;SDS011;57172;52.034;5.090;2022-08-21T03:58:16;12.63;;;6.30;;
69894;SDS011;57172;52.034;5.090;2022-08-21T04:00:45;15.73;;;6.22;;
69894;SDS011;57172;52.034;5.090;2022-08-21T04:03:13;11.77;;;5.75;;
69894;SDS011;57172;52.034;5.090;2022-08-21T04:05:40;14.52;;;6.35;;
69894;SDS011;57172;52.034;5.090;2022-08-21T04:08:07;17.30;;;6.53;;
69894;SDS011;57172;52.034;5.090;2022-08-21T04:10:35;12.07;;;6.35;;
69894;SDS011;57172;52.034;5.090;2022-08-21T04:13:03;17.23;;;6.63;;
69894;SDS011;57172;52.034;5.090;2022-08-21T04:15:31;14.38;;;6.47;;
69894;SDS011;57172;52.034;5.090;2022-08-21T04:17:58;13.02;;;6.70;;
69894;SDS011;57172;52.034;5.090;2022-08-21T04:20:26;15.87;;;6.53;;
69894;SDS011;57172;52.034;5.090;2022-08-21T04:22:53;15.05;;;6.38;;
69894;SDS011;57172;52.034;5.090;2022-08-21T04:25:21;13.32;;;6.40;;
69894;SDS011;57172;52.034;5.090;2022-08-21T04:27:49;13.20;;;6.20;;
69894;SDS011;57172;52.034;5.090;2022-08-21T04:30:17;13.45;;;6.15;;
69894;SDS011;57172;52.034;5.090;2022-08-21T04:32:45;9.97;;;5.97;;
69894;SDS011;57172;52.034;5.090;2022-08-21T04:35:15;14.93;;;6.45;;
69894;SDS011;57172;52.034;5.090;2022-08-21T04:37:44;11.02;;;6.35;;
69894;SDS011;57172;52.034;5.090;2022-08-21T04:40:12;14.35;;;6.38;;
69894;SDS011;57172;52.034;5.090;2022-08-21T04:42:45;13.48;;;6.28;;
69894;SDS011;57172;52.034;5.090;2022-08-21T04:45:39;14.00;;;5.83;;
69894;SDS011;57172;52.034;5.090;2022-08-21T04:48:08;12.00;;;6.20;;
69894;SDS011;57172;52.034;5.090;2022-08-21T04:56:10;13.63;;;6.05;;
69894;SDS011;57172;52.034;5.090;2022-08-21T04:58:40;15.50;;;6.70;;
69894;SDS011;57172;52.034;5.090;2022-08-21T05:01:10;11.77;;;6.30;;
69894;SDS011;57172;52.034;5.090;2022-08-21T05:03:44;15.85;;;6.40;;
69894;SDS011;57172;52.034;5.090;2022-08-21T05:06:13;14.52;;;6.53;;
69894;SDS011;57172;52.034;5.090;2022-08-21T05:08:43;13.70;;;6.10;;
69894;SDS011;57172;52.034;5.090;2022-08-21T05:11:11;15.40;;;6.27;;
69894;SDS011;57172;52.034;5.090;2022-08-21T05:13:39;15.95;;;6.05;;
69894;SDS011;57172;52.034;5.090;2022-08-21T05:16:07;15.07;;;6.20;;
69894;SDS011;57172;52.034;5.090;2022-08-21T05:18:34;14.57;;;6.22;;
69894;SDS011;57172;52.034;5.090;2022-08-21T05:21:01;15.55;;;6.13;;
69894;SDS011;57172;52.034;5.090;2022-08-21T05:23:28;13.47;;;6.37;;
69894;SDS011;57172;52.034;5.090;2022-08-21T05:25:55;12.93;;;6.13;;
69894;SDS011;57172;52.034;5.090;2022-08-21T05:28:22;15.30;;;6.32;;
69894;SDS011;57172;52.034;5.090;2022-08-21T05:30:52;12.93;;;6.53;;
69894;SDS011;57172;52.034;5.090;2022-08-21T05:33:19;13.82;;;6.03;;
69894;SDS011;57172;52.034;5.090;2022-08-21T05:35:48;13.17;;;5.57;;
69894;SDS011;57172;52.034;5.090;2022-08-21T05:38:22;13.98;;;6.25;;
69894;SDS011;57172;52.034;5.090;2022-08-21T05:40:50;13.75;;;5.65;;
69894;SDS011;57172;52.034;5.090;2022-08-21T05:43:17;14.73;;;6.20;;
69894;SDS011;57172;52.034;5.090;2022-08-21T05:45:44;13.75;;;5.53;;
69894;SDS011;57172;52.034;5.090;2022-08-21T05:48:16;17.93;;;6.13;;
69894;SDS011;57172;52.034;5.090;2022-08-21T05:50:45;13.63;;;5.57;;
69894;SDS011;57172;52.034;5.090;2022-08-21T05:53:13;12.50;;;5.82;;
69894;SDS011;57172;52.034;5.090;2022-08-21T05:55:41;12.63;;;5.80;;
69894;SDS011;57172;52.034;5.090;2022-08-21T05:58:15;15.48;;;6.25;;
69894;SDS011;57172;52.034;5.090;2022-08-21T06:00:44;13.37;;;5.40;;
69894;SDS011;57172;52.034;5.090;2022-08-21T06:03:14;12.45;;;5.80;;
69894;SDS011;57172;52.034;5.090;2022-08-21T06:05:48;15.75;;;6.00;;
69894;SDS011;57172;52.034;5.090;2022-08-21T06:08:15;15.32;;;5.85;;
69894;SDS011;57172;52.034;5.090;2022-08-21T06:10:43;23.45;;;5.78;;
69894;SDS011;57172;52.034;5.090;2022-08-21T06:13:11;14.20;;;5.67;;
69894;SDS011;57172;52.034;5.090;2022-08-21T06:15:38;13.07;;;5.45;;
69894;SDS011;57172;52.034;5.090;2022-08-21T06:18:05;12.80;;;5.40;;
69894;SDS011;57172;52.034;5.090;2022-08-21T06:20:33;17.10;;;5.68;;
69894;SDS011;57172;52.034;5.090;2022-08-21T06:23:00;15.15;;;5.55;;
69894;SDS011;57172;52.034;5.090;2022-08-21T06:25:27;15.20;;;5.73;;
69894;SDS011;57172;52.034;5.090;2022-08-21T06:28:05;15.50;;;5.88;;
69894;SDS011;57172;52.034;5.090;2022-08-21T06:30:34;14.88;;;5.53;;
69894;SDS011;57172;52.034;5.090;2022-08-21T06:33:03;15.82;;;5.78;;
69894;SDS011;57172;52.034;5.090;2022-08-21T06:35:30;15.95;;;5.68;;
69894;SDS011;57172;52.034;5.090;2022-08-21T06:37:57;15.70;;;5.80;;
69894;SDS011;57172;52.034;5.090;2022-08-21T06:40:26;10.55;;;5.40;;
69894;SDS011;57172;52.034;5.090;2022-08-21T06:42:55;12.00;;;5.63;;
69894;SDS011;57172;52.034;5.090;2022-08-21T06:45:31;16.98;;;5.78;;
69894;SDS011;57172;52.034;5.090;2022-08-21T06:47:58;16.35;;;5.53;;
69894;SDS011;57172;52.034;5.090;2022-08-21T06:50:25;15.03;;;5.40;;
69894;SDS011;57172;52.034;5.090;2022-08-21T06:52:59;12.70;;;4.80;;
69894;SDS011;57172;52.034;5.090;2022-08-21T06:55:32;14.30;;;5.47;;
69894;SDS011;57172;52.034;5.090;2022-08-21T06:57:59;14.02;;;5.57;;
69894;SDS011;57172;52.034;5.090;2022-08-21T07:00:26;13.88;;;5.53;;
69894;SDS011;57172;52.034;5.090;2022-08-21T07:02:53;18.57;;;5.43;;
69894;SDS011;57172;52.034;5.090;2022-08-21T07:05:20;14.07;;;5.40;;
69894;SDS011;57172;52.034;5.090;2022-08-21T07:07:47;15.60;;;5.18;;
69894;SDS011;57172;52.034;5.090;2022-08-21T07:10:14;14.63;;;5.32;;
69894;SDS011;57172;52.034;5.090;2022-08-21T07:12:48;13.05;;;4.85;;
69894;SDS011;57172;52.034;5.090;2022-08-21T07:15:26;12.03;;;4.97;;
69894;SDS011;57172;52.034;5.090;2022-08-21T07:17:55;15.88;;;4.90;;
69894;SDS011;57172;52.034;5.090;2022-08-21T07:20:23;19.05;;;4.95;;
69894;SDS011;57172;52.034;5.090;2022-08-21T07:22:50;11.95;;;5.10;;
69894;SDS011;57172;52.034;5.090;2022-08-21T07:25:17;15.13;;;5.18;;
69894;SDS011;57172;52.034;5.090;2022-08-21T07:27:44;17.80;;;5.70;;
69894;SDS011;57172;52.034;5.090;2022-08-21T07:30:11;12.95;;;5.20;;
69894;SDS011;57172;52.034;5.090;2022-08-21T07:32:38;20.65;;;5.20;;
69894;SDS011;57172;52.034;5.090;2022-08-21T07:35:05;12.50;;;4.45;;
69894;SDS011;57172;52.034;5.090;2022-08-21T07:37:33;12.50;;;4.68;;
69894;SDS011;57172;52.034;5.090;2022-08-21T07:40:00;15.87;;;5.07;;
69894;SDS011;57172;52.034;5.090;2022-08-21T07:42:27;13.13;;;5.15;;
69894;SDS011;57172;52.034;5.090;2022-08-21T07:44:54;15.18;;;4.82;;
69894;SDS011;57172;52.034;5.090;2022-08-21T07:47:22;9.60;;;4.70;;
69894;SDS011;57172;52.034;5.090;2022-08-21T07:50:07;15.90;;;5.18;;
69894;SDS011;57172;52.034;5.090;2022-08-21T07:52:39;13.27;;;5.40;;
69894;SDS011;57172;52.034;5.090;2022-08-21T07:55:07;13.57;;;5.32;;
69894;SDS011;57172;52.034;5.090;2022-08-21T07:57:37;13.35;;;5.60;;
69894;SDS011;57172;52.034;5.090;2022-08-21T08:00:04;13.23;;;4.93;;
69894;SDS011;57172;52.034;5.090;2022-08-21T08:02:37;14.05;;;5.05;;
69894;SDS011;57172;52.034;5.090;2022-08-21T08:05:05;11.20;;;4.27;;
69894;SDS011;57172;52.034;5.090;2022-08-21T08:07:35;16.45;;;5.03;;
69894;SDS011;57172;52.034;5.090;2022-08-21T08:10:03;11.70;;;4.80;;
69894;SDS011;57172;52.034;5.090;2022-08-21T08:12:36;15.80;;;5.10;;
69894;SDS011;57172;52.034;5.090;2022-08-21T08:15:06;13.15;;;5.00;;
69894;SDS011;57172;52.034;5.090;2022-08-21T08:17:35;12.00;;;4.80;;
69894;SDS011;57172;52.034;5.090;2022-08-21T08:20:04;11.57;;;5.10;;
69894;SDS011;57172;52.034;5.090;2022-08-21T08:22:33;11.98;;;4.63;;
69894;SDS011;57172;52.034;5.090;2022-08-21T08:25:02;12.13;;;4.50;;
69894;SDS011;57172;52.034;5.090;2022-08-21T08:27:34;12.30;;;4.80;;
69894;SDS011;57172;52.034;5.090;2022-08-21T08:30:02;17.90;;;4.90;;
69894;SDS011;57172;52.034;5.090;2022-08-21T08:32:29;11.38;;;4.25;;
69894;SDS011;57172;52.034;5.090;2022-08-21T08:34:56;12.75;;;5.07;;
69894;SDS011;57172;52.034;5.090;2022-08-21T08:37:23;13.02;;;4.57;;
69894;SDS011;57172;52.034;5.090;2022-08-21T08:39:55;9.18;;;4.43;;
69894;SDS011;57172;52.034;5.090;2022-08-21T08:45:04;12.10;;;4.13;;
69894;SDS011;57172;52.034;5.090;2022-08-21T08:47:38;13.25;;;4.10;;
69894;SDS011;57172;52.034;5.090;2022-08-21T08:50:11;11.27;;;4.10;;
69894;SDS011;57172;52.034;5.090;2022-08-21T08:52:52;11.43;;;4.20;;
69894;SDS011;57172;52.034;5.090;2022-08-21T08:55:28;11.77;;;4.10;;
69894;SDS011;57172;52.034;5.090;2022-08-21T08:58:05;11.52;;;4.20;;
69894;SDS011;57172;52.034;5.090;2022-08-21T09:00:33;12.77;;;3.72;;
69894;SDS011;57172;52.034;5.090;2022-08-21T09:03:01;13.57;;;4.40;;
69894;SDS011;57172;52.034;5.090;2022-08-21T09:05:30;11.88;;;4.20;;
69894;SDS011;57172;52.034;5.090;2022-08-21T09:11:02;11.35;;;3.83;;
69894;SDS011;57172;52.034;5.090;2022-08-21T09:13:37;10.50;;;3.55;;
69894;SDS011;57172;52.034;5.090;2022-08-21T09:26:49;11.70;;;3.30;;
69894;SDS011;57172;52.034;5.090;2022-08-21T09:29:28;9.90;;;3.63;;
69894;SDS011;57172;52.034;5.090;2022-08-21T09:31:59;9.38;;;2.75;;
69894;SDS011;57172;52.034;5.090;2022-08-21T09:34:29;11.20;;;2.50;;
69894;SDS011;57172;52.034;5.090;2022-08-21T09:36:57;9.75;;;2.60;;
69894;SDS011;57172;52.034;5.090;2022-08-21T09:39:30;8.43;;;2.70;;
69894;SDS011;57172;52.034;5.090;2022-08-21T09:42:07;8.15;;;2.40;;
69894;SDS011;57172;52.034;5.090;2022-08-21T09:44:36;9.75;;;2.60;;
69894;SDS011;57172;52.034;5.090;2022-08-21T09:47:07;9.73;;;2.57;;
69894;SDS011;57172;52.034;5.090;2022-08-21T09:49:37;10.15;;;2.75;;
69894;SDS011;57172;52.034;5.090;2022-08-21T09:52:19;8.85;;;2.55;;
69894;SDS011;57172;52.034;5.090;2022-08-21T09:54:50;9.27;;;2.47;;
69894;SDS011;57172;52.034;5.090;2022-08-21T09:57:23;8.57;;;2.45;;
69894;SDS011;57172;52.034;5.090;2022-08-21T10:00:25;8.00;;;2.20;;
69894;SDS011;57172;52.034;5.090;2022-08-21T10:05:53;11.35;;;2.40;;
69894;SDS011;57172;52.034;5.090;2022-08-21T10:08:36;11.00;;;2.30;;
69894;SDS011;57172;52.034;5.090;2022-08-21T10:11:06;8.05;;;2.22;;
69894;SDS011;57172;52.034;5.090;2022-08-21T10:29:42;6.35;;;2.35;;
69894;SDS011;57172;52.034;5.090;2022-08-21T10:40:25;8.00;;;2.20;;
69894;SDS011;57172;52.034;5.090;2022-08-21T10:43:27;7.43;;;2.10;;
69894;SDS011;57172;52.034;5.090;2022-08-21T10:49:23;6.57;;;2.20;;
69894;SDS011;57172;52.034;5.090;2022-08-21T10:52:40;7.38;;;2.15;;
69894;SDS011;57172;52.034;5.090;2022-08-21T10:55:14;6.10;;;2.20;;
69894;SDS011;57172;52.034;5.090;2022-08-21T10:58:04;7.28;;;2.30;;
69894;SDS011;57172;52.034;5.090;2022-08-21T11:00:41;7.35;;;2.50;;
69894;SDS011;57172;52.034;5.090;2022-08-21T11:03:15;7.30;;;2.30;;
69894;SDS011;57172;52.034;5.090;2022-08-21T11:06:25;12.80;;;2.45;;
69894;SDS011;57172;52.034;5.090;2022-08-21T11:09:15;5.17;;;2.27;;
69894;SDS011;57172;52.034;5.090;2022-08-21T11:12:05;6.35;;;2.50;;
69894;SDS011;57172;52.034;5.090;2022-08-21T11:14:55;9.60;;;2.25;;
69894;SDS011;57172;52.034;5.090;2022-08-21T11:17:39;6.38;;;1.98;;
69894;SDS011;57172;52.034;5.090;2022-08-21T11:20:38;6.53;;;2.03;;
69894;SDS011;57172;52.034;5.090;2022-08-21T11:26:07;5.82;;;1.85;;
69894;SDS011;57172;52.034;5.090;2022-08-21T11:28:48;6.95;;;1.90;;
69894;SDS011;57172;52.034;5.090;2022-08-21T11:36:51;10.40;;;2.30;;
69894;SDS011;57172;52.034;5.090;2022-08-21T11:39:43;7.10;;;2.20;;
69894;SDS011;57172;52.034;5.090;2022-08-21T11:45:18;7.72;;;2.30;;
69894;SDS011;57172;52.034;5.090;2022-08-21T11:50:54;10.57;;;2.50;;
69894;SDS011;57172;52.034;5.090;2022-08-21T11:53:30;8.00;;;2.38;;
69894;SDS011;57172;52.034;5.090;2022-08-21T11:59:02;7.13;;;2.40;;
69894;SDS011;57172;52.034;5.090;2022-08-21T12:01:37;7.47;;;2.35;;
69894;SDS011;57172;52.034;5.090;2022-08-21T12:04:31;9.83;;;2.30;;
69894;SDS011;57172;52.034;5.090;2022-08-21T12:07:12;7.57;;;2.15;;
69894;SDS011;57172;52.034;5.090;2022-08-21T12:09:51;8.60;;;2.03;;
69894;SDS011;57172;52.034;5.090;2022-08-21T12:12:27;7.13;;;1.90;;
69894;SDS011;57172;52.034;5.090;2022-08-21T12:15:30;7.07;;;2.10;;
69894;SDS011;57172;52.034;5.090;2022-08-21T12:25:42;5.68;;;2.10;;
69894;SDS011;57172;52.034;5.090;2022-08-21T12:28:10;6.53;;;2.00;;
69894;SDS011;57172;52.034;5.090;2022-08-21T12:30:42;9.70;;;2.13;;
69894;SDS011;57172;52.034;5.090;2022-08-21T12:35:47;5.53;;;2.03;;
69894;SDS011;57172;52.034;5.090;2022-08-21T12:38:23;8.73;;;2.45;;
69894;SDS011;57172;52.034;5.090;2022-08-21T12:41:02;6.80;;;2.00;;
69894;SDS011;57172;52.034;5.090;2022-08-21T12:43:36;7.97;;;2.40;;
69894;SDS011;57172;52.034;5.090;2022-08-21T12:46:06;6.88;;;2.20;;
69894;SDS011;57172;52.034;5.090;2022-08-21T12:48:42;9.38;;;2.30;;
69894;SDS011;57172;52.034;5.090;2022-08-21T12:51:21;9.10;;;2.45;;
69894;SDS011;57172;52.034;5.090;2022-08-21T12:53:56;6.70;;;2.08;;
69894;SDS011;57172;52.034;5.090;2022-08-21T12:56:25;11.10;;;2.50;;
69894;SDS011;57172;52.034;5.090;2022-08-21T12:58:55;12.00;;;2.80;;
69894;SDS011;57172;52.034;5.090;2022-08-21T13:01:32;7.50;;;2.05;;
69894;SDS011;57172;52.034;5.090;2022-08-21T13:04:08;7.57;;;2.40;;
69894;SDS011;57172;52.034;5.090;2022-08-21T13:06:42;8.05;;;2.30;;
69894;SDS011;57172;52.034;5.090;2022-08-21T13:09:13;6.93;;;2.60;;
69894;SDS011;57172;52.034;5.090;2022-08-21T13:11:43;7.75;;;1.95;;
69894;SDS011;57172;52.034;5.090;2022-08-21T13:14:22;6.93;;;2.10;;
69894;SDS011;57172;52.034;5.090;2022-08-21T13:16:57;9.55;;;2.10;;
69894;SDS011;57172;52.034;5.090;2022-08-21T13:19:25;6.45;;;1.88;;
69894;SDS011;57172;52.034;5.090;2022-08-21T13:21:53;5.97;;;1.80;;
69894;SDS011;57172;52.034;5.090;2022-08-21T13:24:24;8.13;;;2.00;;
69894;SDS011;57172;52.034;5.090;2022-08-21T13:30:18;6.05;;;1.98;;
69894;SDS011;57172;52.034;5.090;2022-08-21T13:32:48;6.78;;;1.90;;
69894;SDS011;57172;52.034;5.090;2022-08-21T13:35:22;6.27;;;2.10;;
69894;SDS011;57172;52.034;5.090;2022-08-21T13:37:55;5.50;;;1.90;;
69894;SDS011;57172;52.034;5.090;2022-08-21T13:40:28;5.35;;;1.92;;
69894;SDS011;57172;52.034;5.090;2022-08-21T13:43:10;6.95;;;2.20;;
69894;SDS011;57172;52.034;5.090;2022-08-21T13:45:49;7.78;;;2.20;;
69894;SDS011;57172;52.034;5.090;2022-08-21T13:48:18;4.70;;;1.73;;
69894;SDS011;57172;52.034;5.090;2022-08-21T13:50:46;6.00;;;1.67;;
69894;SDS011;57172;52.034;5.090;2022-08-21T13:53:21;6.20;;;1.65;;
69894;SDS011;57172;52.034;5.090;2022-08-21T13:59:08;5.93;;;2.00;;
69894;SDS011;57172;52.034;5.090;2022-08-21T14:01:37;5.33;;;2.10;;
69894;SDS011;57172;52.034;5.090;2022-08-21T14:04:18;6.68;;;1.85;;
69894;SDS011;57172;52.034;5.090;2022-08-21T14:06:51;8.05;;;1.90;;
69894;SDS011;57172;52.034;5.090;2022-08-21T14:09:30;7.28;;;2.00;;
69894;SDS011;57172;52.034;5.090;2022-08-21T14:12:03;6.47;;;2.17;;
69894;SDS011;57172;52.034;5.090;2022-08-21T14:14:50;5.80;;;1.87;;
69894;SDS011;57172;52.034;5.090;2022-08-21T14:17:28;7.32;;;2.45;;
69894;SDS011;57172;52.034;5.090;2022-08-21T14:20:05;6.35;;;1.98;;
69894;SDS011;57172;52.034;5.090;2022-08-21T14:25:10;6.43;;;2.10;;
69894;SDS011;57172;52.034;5.090;2022-08-21T14:27:50;7.60;;;2.40;;
69894;SDS011;57172;52.034;5.090;2022-08-21T14:30:33;5.75;;;2.00;;
69894;SDS011;57172;52.034;5.090;2022-08-21T14:33:02;7.60;;;2.40;;
69894;SDS011;57172;52.034;5.090;2022-08-21T14:35:33;6.82;;;2.30;;
69894;SDS011;57172;52.034;5.090;2022-08-21T14:38:00;7.05;;;2.03;;
69894;SDS011;57172;52.034;5.090;2022-08-21T14:40:27;6.50;;;2.20;;
69894;SDS011;57172;52.034;5.090;2022-08-21T14:42:54;8.38;;;2.17;;
69894;SDS011;57172;52.034;5.090;2022-08-21T14:45:27;7.47;;;2.10;;
69894;SDS011;57172;52.034;5.090;2022-08-21T14:47:57;11.25;;;2.20;;
69894;SDS011;57172;52.034;5.090;2022-08-21T14:50:25;6.75;;;2.00;;
69894;SDS011;57172;52.034;5.090;2022-08-21T14:52:53;6.37;;;2.00;;
69894;SDS011;57172;52.034;5.090;2022-08-21T14:55:20;6.28;;;2.55;;
69894;SDS011;57172;52.034;5.090;2022-08-21T14:57:48;5.45;;;1.85;;
69894;SDS011;57172;52.034;5.090;2022-08-21T15:00:19;6.75;;;2.00;;
69894;SDS011;57172;52.034;5.090;2022-08-21T15:03:00;6.55;;;2.10;;
69894;SDS011;57172;52.034;5.090;2022-08-21T15:05:28;6.27;;;1.90;;
69894;SDS011;57172;52.034;5.090;2022-08-21T15:07:59;4.97;;;1.88;;
69894;SDS011;57172;52.034;5.090;2022-08-21T15:10:27;7.38;;;2.30;;
69894;SDS011;57172;52.034;5.090;2022-08-21T15:12:55;6.03;;;2.00;;
69894;SDS011;57172;52.034;5.090;2022-08-21T15:15:22;6.78;;;2.38;;
69894;SDS011;57172;52.034;5.090;2022-08-21T15:17:48;6.67;;;2.13;;
69894;SDS011;57172;52.034;5.090;2022-08-21T15:20:15;8.52;;;2.40;;
69894;SDS011;57172;52.034;5.090;2022-08-21T15:22:42;6.72;;;2.20;;
69894;SDS011;57172;52.034;5.090;2022-08-21T15:25:13;6.38;;;2.17;;
69894;SDS011;57172;52.034;5.090;2022-08-21T15:27:40;6.78;;;2.20;;
69894;SDS011;57172;52.034;5.090;2022-08-21T15:30:08;4.93;;;1.77;;
69894;SDS011;57172;52.034;5.090;2022-08-21T15:32:35;6.82;;;1.98;;
69894;SDS011;57172;52.034;5.090;2022-08-21T15:35:02;7.32;;;1.98;;
69894;SDS011;57172;52.034;5.090;2022-08-21T15:37:29;6.55;;;2.05;;
69894;SDS011;57172;52.034;5.090;2022-08-21T15:39:56;7.10;;;2.13;;
69894;SDS011;57172;52.034;5.090;2022-08-21T15:42:23;6.33;;;2.00;;
69894;SDS011;57172;52.034;5.090;2022-08-21T15:44:53;5.30;;;1.90;;
69894;SDS011;57172;52.034;5.090;2022-08-21T15:47:22;7.80;;;1.90;;
69894;SDS011;57172;52.034;5.090;2022-08-21T15:49:55;6.07;;;1.95;;
69894;SDS011;57172;52.034;5.090;2022-08-21T15:52:22;6.57;;;1.80;;
69894;SDS011;57172;52.034;5.090;2022-08-21T15:54:49;6.23;;;1.80;;
69894;SDS011;57172;52.034;5.090;2022-08-21T15:57:19;9.48;;;2.20;;
69894;SDS011;57172;52.034;5.090;2022-08-21T15:59:49;6.95;;;1.77;;
69894;SDS011;57172;52.034;5.090;2022-08-21T16:02:20;7.20;;;2.00;;
69894;SDS011;57172;52.034;5.090;2022-08-21T16:04:49;5.10;;;1.90;;
69894;SDS011;57172;52.034;5.090;2022-08-21T16:07:16;7.00;;;2.20;;
69894;SDS011;57172;52.034;5.090;2022-08-21T16:09:43;7.25;;;2.10;;
69894;SDS011;57172;52.034;5.090;2022-08-21T16:12:11;6.43;;;1.80;;
69894;SDS011;57172;52.034;5.090;2022-08-21T16:14:43;5.72;;;1.80;;
69894;SDS011;57172;52.034;5.090;2022-08-21T16:17:10;6.88;;;2.17;;
69894;SDS011;57172;52.034;5.090;2022-08-21T16:19:37;5.43;;;1.87;;
69894;SDS011;57172;52.034;5.090;2022-08-21T16:22:04;10.70;;;2.03;;
69894;SDS011;57172;52.034;5.090;2022-08-21T16:24:31;6.50;;;1.80;;
69894;SDS011;57172;52.034;5.090;2022-08-21T16:27:01;4.82;;;1.92;;
69894;SDS011;57172;52.034;5.090;2022-08-21T16:29:34;6.20;;;1.90;;
69894;SDS011;57172;52.034;5.090;2022-08-21T16:32:03;7.80;;;2.00;;
69894;SDS011;57172;52.034;5.090;2022-08-21T16:34:31;6.53;;;1.83;;
69894;SDS011;57172;52.034;5.090;2022-08-21T16:36:58;5.95;;;2.10;;